sensor_id;sensor_type;location;lat;lon;timestamp;pressure;altitude;pressure_sealevel;temperature
78859;BMP280;68210;52.032;4.634;2023-04-07T00:00:32;101420.47;;;9.64
78859;BMP280;68210;52.032;4.634;2023-04-07T00:02:33;101418.53;;;9.73
78859;BMP280;68210;52.032;4.634;2023-04-07T00:04:33;101416.91;;;9.72
78859;BMP280;68210;52.032;4.634;2023-04-07T00:06:34;101405.38;;;9.63
78859;BMP280;68210;52.032;4.634;2023-04-07T00:08:34;101411.09;;;9.62
78859;BMP280;68210;52.032;4.634;2023-04-07T00:10:35;101415.91;;;9.56
78859;BMP280;68210;52.032;4.634;2023-04-07T00:12:35;101405.97;;;9.69
78859;BMP280;68210;52.032;4.634;2023-04-07T00:14:36;101422.94;;;9.57
78859;BMP280;68210;52.032;4.634;2023-04-07T00:16:36;101419.56;;;9.80
78859;BMP280;68210;52.032;4.634;2023-04-07T00:18:36;101423.13;;;9.72
78859;BMP280;68210;52.032;4.634;2023-04-07T00:20:37;101423.00;;;9.69
78859;BMP280;68210;52.032;4.634;2023-04-07T00:22:37;101428.00;;;9.59
78859;BMP280;68210;52.032;4.634;2023-04-07T00:24:38;101434.47;;;9.46
78859;BMP280;68210;52.032;4.634;2023-04-07T00:26:38;101433.69;;;9.66
78859;BMP280;68210;52.032;4.634;2023-04-07T00:28:38;101431.25;;;9.72
78859;BMP280;68210;52.032;4.634;2023-04-07T00:30:39;101429.59;;;9.60
78859;BMP280;68210;52.032;4.634;2023-04-07T00:32:39;101430.38;;;9.60
78859;BMP280;68210;52.032;4.634;2023-04-07T00:34:40;101435.47;;;9.62
78859;BMP280;68210;52.032;4.634;2023-04-07T00:36:40;101437.91;;;9.55
78859;BMP280;68210;52.032;4.634;2023-04-07T00:38:41;101439.81;;;9.54
78859;BMP280;68210;52.032;4.634;2023-04-07T00:40:41;101437.00;;;9.71
78859;BMP280;68210;52.032;4.634;2023-04-07T00:42:41;101437.53;;;9.65
78859;BMP280;68210;52.032;4.634;2023-04-07T00:44:42;101429.44;;;9.56
78859;BMP280;68210;52.032;4.634;2023-04-07T00:46:42;101428.53;;;9.72
78859;BMP280;68210;52.032;4.634;2023-04-07T00:48:43;101424.31;;;9.63
78859;BMP280;68210;52.032;4.634;2023-04-07T00:50:44;101428.09;;;9.70
78859;BMP280;68210;52.032;4.634;2023-04-07T00:52:45;101425.69;;;9.69
78859;BMP280;68210;52.032;4.634;2023-04-07T00:54:46;101420.16;;;9.66
78859;BMP280;68210;52.032;4.634;2023-04-07T00:56:46;101432.38;;;9.51
78859;BMP280;68210;52.032;4.634;2023-04-07T00:58:46;101429.97;;;9.50
78859;BMP280;68210;52.032;4.634;2023-04-07T01:01:23;101423.88;;;9.33
78859;BMP280;68210;52.032;4.634;2023-04-07T01:03:32;101431.38;;;9.27
78859;BMP280;68210;52.032;4.634;2023-04-07T01:05:48;101433.31;;;9.18
78859;BMP280;68210;52.032;4.634;2023-04-07T01:08:20;101422.22;;;9.11
78859;BMP280;68210;52.032;4.634;2023-04-07T01:10:27;101427.16;;;9.09
78859;BMP280;68210;52.032;4.634;2023-04-07T01:12:53;101427.47;;;9.08
78859;BMP280;68210;52.032;4.634;2023-04-07T01:14:59;101423.34;;;9.02
78859;BMP280;68210;52.032;4.634;2023-04-07T01:17:04;101417.50;;;8.92
78859;BMP280;68210;52.032;4.634;2023-04-07T01:19:14;101428.97;;;8.89
78859;BMP280;68210;52.032;4.634;2023-04-07T01:21:17;101428.97;;;8.89
78859;BMP280;68210;52.032;4.634;2023-04-07T01:23:30;101431.69;;;8.89
78859;BMP280;68210;52.032;4.634;2023-04-07T01:30:03;101436.00;;;8.81
78859;BMP280;68210;52.032;4.634;2023-04-07T01:32:08;101442.38;;;8.77
78859;BMP280;68210;52.032;4.634;2023-04-07T01:34:11;101455.25;;;8.80
78859;BMP280;68210;52.032;4.634;2023-04-07T01:36:13;101445.06;;;8.85
78859;BMP280;68210;52.032;4.634;2023-04-07T01:38:15;101448.25;;;8.79
78859;BMP280;68210;52.032;4.634;2023-04-07T01:40:16;101458.91;;;8.76
78859;BMP280;68210;52.032;4.634;2023-04-07T01:42:18;101455.13;;;8.68
78859;BMP280;68210;52.032;4.634;2023-04-07T01:44:19;101453.03;;;8.65
78859;BMP280;68210;52.032;4.634;2023-04-07T01:46:21;101443.84;;;8.66
78859;BMP280;68210;52.032;4.634;2023-04-07T01:48:22;101453.22;;;8.69
78859;BMP280;68210;52.032;4.634;2023-04-07T01:50:23;101443.84;;;8.66
78859;BMP280;68210;52.032;4.634;2023-04-07T01:52:26;101453.47;;;8.84
78859;BMP280;68210;52.032;4.634;2023-04-07T01:54:27;101457.31;;;8.75
78859;BMP280;68210;52.032;4.634;2023-04-07T01:56:28;101459.53;;;8.81
78859;BMP280;68210;52.032;4.634;2023-04-07T01:58:28;101451.75;;;8.79
78859;BMP280;68210;52.032;4.634;2023-04-07T02:00:28;101449.69;;;8.77
78859;BMP280;68210;52.032;4.634;2023-04-07T02:02:32;101452.41;;;8.77
78859;BMP280;68210;52.032;4.634;2023-04-07T02:04:54;101443.75;;;8.91
78859;BMP280;68210;52.032;4.634;2023-04-07T02:07:00;101456.66;;;8.86
78859;BMP280;68210;52.032;4.634;2023-04-07T02:09:05;101440.44;;;8.86
78859;BMP280;68210;52.032;4.634;2023-04-07T02:11:07;101446.19;;;8.84
78859;BMP280;68210;52.032;4.634;2023-04-07T02:13:09;101444.56;;;8.83
78859;BMP280;68210;52.032;4.634;2023-04-07T02:15:12;101439.16;;;8.83
78859;BMP280;68210;52.032;4.634;2023-04-07T02:17:14;101443.78;;;8.83
78859;BMP280;68210;52.032;4.634;2023-04-07T02:19:16;101450.97;;;8.79
78859;BMP280;68210;52.032;4.634;2023-04-07T02:21:17;101461.44;;;8.80
78859;BMP280;68210;52.032;4.634;2023-04-07T02:23:18;101443.00;;;8.82
78859;BMP280;68210;52.032;4.634;2023-04-07T02:25:30;101445.50;;;8.96
78859;BMP280;68210;52.032;4.634;2023-04-07T02:27:32;101445.03;;;8.94
78859;BMP280;68210;52.032;4.634;2023-04-07T02:29:33;101443.63;;;8.88
78859;BMP280;68210;52.032;4.634;2023-04-07T02:31:33;101451.38;;;8.98
78859;BMP280;68210;52.032;4.634;2023-04-07T02:33:34;101444.19;;;9.02
78859;BMP280;68210;52.032;4.634;2023-04-07T02:35:35;101442.00;;;8.95
78859;BMP280;68210;52.032;4.634;2023-04-07T02:37:35;101442.63;;;9.01
78859;BMP280;68210;52.032;4.634;2023-04-07T02:39:35;101451.19;;;9.03
78859;BMP280;68210;52.032;4.634;2023-04-07T02:41:36;101453.28;;;8.97
78859;BMP280;68210;52.032;4.634;2023-04-07T02:43:36;101442.63;;;9.01
78859;BMP280;68210;52.032;4.634;2023-04-07T02:45:37;101454.22;;;9.01
78859;BMP280;68210;52.032;4.634;2023-04-07T02:47:38;101444.84;;;8.99
78859;BMP280;68210;52.032;4.634;2023-04-07T02:49:38;101444.38;;;8.97
78859;BMP280;68210;52.032;4.634;2023-04-07T02:51:38;101459.66;;;9.01
78859;BMP280;68210;52.032;4.634;2023-04-07T02:53:39;101453.94;;;8.94
78859;BMP280;68210;52.032;4.634;2023-04-07T02:55:39;101447.09;;;8.97
78859;BMP280;68210;52.032;4.634;2023-04-07T02:57:39;101454.50;;;9.08
78859;BMP280;68210;52.032;4.634;2023-04-07T02:59:40;101444.47;;;9.17
78859;BMP280;68210;52.032;4.634;2023-04-07T03:01:40;101443.84;;;9.11
78859;BMP280;68210;52.032;4.634;2023-04-07T03:03:41;101448.31;;;9.08
78859;BMP280;68210;52.032;4.634;2023-04-07T03:05:43;101441.50;;;9.02
78859;BMP280;68210;52.032;4.634;2023-04-07T03:07:44;101444.03;;;9.07
78859;BMP280;68210;52.032;4.634;2023-04-07T03:09:45;101447.50;;;9.15
78859;BMP280;68210;52.032;4.634;2023-04-07T03:11:45;101448.63;;;9.14
78859;BMP280;68210;52.032;4.634;2023-04-07T03:13:46;101448.88;;;9.21
78859;BMP280;68210;52.032;4.634;2023-04-07T03:15:46;101459.72;;;9.21
78859;BMP280;68210;52.032;4.634;2023-04-07T03:17:47;101460.31;;;9.35
78859;BMP280;68210;52.032;4.634;2023-04-07T03:19:47;101447.63;;;9.27
78859;BMP280;68210;52.032;4.634;2023-04-07T03:21:48;101453.44;;;9.38
78859;BMP280;68210;52.032;4.634;2023-04-07T03:23:48;101458.69;;;9.34
78859;BMP280;68210;52.032;4.634;2023-04-07T03:25:48;101454.16;;;9.55
78859;BMP280;68210;52.032;4.634;2023-04-07T03:27:49;101447.78;;;9.51
78859;BMP280;68210;52.032;4.634;2023-04-07T03:29:50;101451.63;;;9.50
78859;BMP280;68210;52.032;4.634;2023-04-07T03:31:50;101444.22;;;9.59
78859;BMP280;68210;52.032;4.634;2023-04-07T03:33:51;101449.66;;;9.59
78859;BMP280;68210;52.032;4.634;2023-04-07T03:35:51;101446.75;;;9.64
78859;BMP280;68210;52.032;4.634;2023-04-07T03:37:52;101446.06;;;9.46
78859;BMP280;68210;52.032;4.634;2023-04-07T03:39:52;101442.97;;;9.56
78859;BMP280;68210;52.032;4.634;2023-04-07T03:41:52;101445.38;;;9.58
78859;BMP280;68210;52.032;4.634;2023-04-07T03:43:53;101455.25;;;9.54
78859;BMP280;68210;52.032;4.634;2023-04-07T03:45:53;101458.81;;;9.46
78859;BMP280;68210;52.032;4.634;2023-04-07T03:47:53;101453.97;;;9.60
78859;BMP280;68210;52.032;4.634;2023-04-07T03:49:54;101457.13;;;9.62
78859;BMP280;68210;52.032;4.634;2023-04-07T03:51:55;101463.38;;;9.54
78859;BMP280;68210;52.032;4.634;2023-04-07T03:53:55;101451.31;;;9.43
78859;BMP280;68210;52.032;4.634;2023-04-07T03:55:56;101455.47;;;9.49
78859;BMP280;68210;52.032;4.634;2023-04-07T03:57:56;101457.69;;;9.47
78859;BMP280;68210;52.032;4.634;2023-04-07T03:59:56;101457.56;;;9.43
78859;BMP280;68210;52.032;4.634;2023-04-07T04:01:57;101465.06;;;9.38
78859;BMP280;68210;52.032;4.634;2023-04-07T04:03:57;101463.63;;;9.32
78859;BMP280;68210;52.032;4.634;2023-04-07T04:05:58;101455.91;;;9.22
78859;BMP280;68210;52.032;4.634;2023-04-07T04:07:58;101465.53;;;9.03
78859;BMP280;68210;52.032;4.634;2023-04-07T04:09:58;101459.09;;;9.16
78859;BMP280;68210;52.032;4.634;2023-04-07T04:11:59;101461.16;;;9.19
78859;BMP280;68210;52.032;4.634;2023-04-07T04:14:01;101472.41;;;9.29
78859;BMP280;68210;52.032;4.634;2023-04-07T04:16:01;101465.09;;;9.30
78859;BMP280;68210;52.032;4.634;2023-04-07T04:18:02;101473.69;;;9.32
78859;BMP280;68210;52.032;4.634;2023-04-07T04:20:03;101473.25;;;9.21
78859;BMP280;68210;52.032;4.634;2023-04-07T04:22:04;101475.66;;;9.14
78859;BMP280;68210;52.032;4.634;2023-04-07T04:24:04;101477.72;;;9.17
78859;BMP280;68210;52.032;4.634;2023-04-07T04:26:04;101486.75;;;9.21
78859;BMP280;68210;52.032;4.634;2023-04-07T04:28:05;101484.09;;;9.13
78859;BMP280;68210;52.032;4.634;2023-04-07T04:30:06;101486.66;;;9.09
78859;BMP280;68210;52.032;4.634;2023-04-07T04:32:07;101486.78;;;9.13
78859;BMP280;68210;52.032;4.634;2023-04-07T04:34:07;101483.75;;;9.23
78859;BMP280;68210;52.032;4.634;2023-04-07T04:36:07;101480.44;;;9.17
78859;BMP280;68210;52.032;4.634;2023-04-07T04:38:09;101483.00;;;9.42
78859;BMP280;68210;52.032;4.634;2023-04-07T04:40:10;101481.44;;;9.41
78859;BMP280;68210;52.032;4.634;2023-04-07T04:42:12;101480.34;;;9.34
78859;BMP280;68210;52.032;4.634;2023-04-07T04:44:12;101476.81;;;9.42
78859;BMP280;68210;52.032;4.634;2023-04-07T04:46:13;101479.59;;;9.54
78859;BMP280;68210;52.032;4.634;2023-04-07T04:48:13;101488.19;;;9.56
78859;BMP280;68210;52.032;4.634;2023-04-07T04:50:13;101480.66;;;9.41
78859;BMP280;68210;52.032;4.634;2023-04-07T04:52:14;101484.47;;;9.40
78859;BMP280;68210;52.032;4.634;2023-04-07T04:54:15;101488.28;;;9.39
78859;BMP280;68210;52.032;4.634;2023-04-07T04:56:15;101490.53;;;9.37
78859;BMP280;68210;52.032;4.634;2023-04-07T04:58:17;101491.13;;;9.42
78859;BMP280;68210;52.032;4.634;2023-04-07T05:00:18;101491.91;;;9.43
78859;BMP280;68210;52.032;4.634;2023-04-07T05:02:19;101492.09;;;9.46
78859;BMP280;68210;52.032;4.634;2023-04-07T05:04:19;101488.59;;;9.46
78859;BMP280;68210;52.032;4.634;2023-04-07T05:06:20;101489.81;;;9.48
78859;BMP280;68210;52.032;4.634;2023-04-07T05:08:20;101485.03;;;9.54
78859;BMP280;68210;52.032;4.634;2023-04-07T05:10:21;101490.59;;;9.57
78859;BMP280;68210;52.032;4.634;2023-04-07T05:12:21;101501.56;;;9.61
78859;BMP280;68210;52.032;4.634;2023-04-07T05:14:22;101495.88;;;9.45
78859;BMP280;68210;52.032;4.634;2023-04-07T05:16:22;101493.78;;;9.51
78859;BMP280;68210;52.032;4.634;2023-04-07T05:18:22;101506.69;;;9.54
78859;BMP280;68210;52.032;4.634;2023-04-07T05:20:23;101500.63;;;9.57
78859;BMP280;68210;52.032;4.634;2023-04-07T05:22:24;101501.91;;;9.51
78859;BMP280;68210;52.032;4.634;2023-04-07T05:24:27;101494.22;;;9.33
78859;BMP280;68210;52.032;4.634;2023-04-07T05:26:28;101512.97;;;9.38
78859;BMP280;68210;52.032;4.634;2023-04-07T05:28:28;101504.22;;;9.32
78859;BMP280;68210;52.032;4.634;2023-04-07T05:30:28;101509.78;;;9.44
78859;BMP280;68210;52.032;4.634;2023-04-07T05:32:29;101518.84;;;9.39
78859;BMP280;68210;52.032;4.634;2023-04-07T05:34:30;101520.97;;;9.26
78859;BMP280;68210;52.032;4.634;2023-04-07T05:36:32;101528.22;;;9.42
78859;BMP280;68210;52.032;4.634;2023-04-07T05:38:32;101512.47;;;9.44
78859;BMP280;68210;52.032;4.634;2023-04-07T05:40:32;101513.03;;;9.58
78859;BMP280;68210;52.032;4.634;2023-04-07T05:42:33;101518.81;;;9.48
78859;BMP280;68210;52.032;4.634;2023-04-07T05:44:33;101526.66;;;9.41
78859;BMP280;68210;52.032;4.634;2023-04-07T05:46:34;101513.13;;;9.41
78859;BMP280;68210;52.032;4.634;2023-04-07T05:48:34;101519.22;;;9.21
78859;BMP280;68210;52.032;4.634;2023-04-07T05:50:35;101517.16;;;9.18
78859;BMP280;68210;52.032;4.634;2023-04-07T05:52:35;101526.44;;;9.09
78859;BMP280;68210;52.032;4.634;2023-04-07T05:54:35;101531.50;;;9.10
78859;BMP280;68210;52.032;4.634;2023-04-07T05:56:36;101536.41;;;9.25
78859;BMP280;68210;52.032;4.634;2023-04-07T05:58:36;101535.13;;;9.31
78859;BMP280;68210;52.032;4.634;2023-04-07T06:00:37;101526.25;;;9.22
78859;BMP280;68210;52.032;4.634;2023-04-07T06:02:37;101538.00;;;9.26
78859;BMP280;68210;52.032;4.634;2023-04-07T06:04:39;101542.75;;;9.29
78859;BMP280;68210;52.032;4.634;2023-04-07T06:06:39;101540.88;;;9.21
78859;BMP280;68210;52.032;4.634;2023-04-07T06:08:40;101542.47;;;9.22
78859;BMP280;68210;52.032;4.634;2023-04-07T06:10:40;101542.09;;;9.32
78859;BMP280;68210;52.032;4.634;2023-04-07T06:12:40;101541.56;;;9.55
78859;BMP280;68210;52.032;4.634;2023-04-07T06:14:41;101535.66;;;9.53
78859;BMP280;68210;52.032;4.634;2023-04-07T06:16:41;101537.50;;;9.69
78859;BMP280;68210;52.032;4.634;2023-04-07T06:18:42;101538.28;;;9.78
78859;BMP280;68210;52.032;4.634;2023-04-07T06:20:42;101533.38;;;9.64
78859;BMP280;68210;52.032;4.634;2023-04-07T06:22:43;101542.25;;;9.72
78859;BMP280;68210;52.032;4.634;2023-04-07T06:24:43;101541.03;;;9.62
78859;BMP280;68210;52.032;4.634;2023-04-07T06:26:44;101544.53;;;9.70
78859;BMP280;68210;52.032;4.634;2023-04-07T06:28:44;101542.16;;;9.61
78859;BMP280;68210;52.032;4.634;2023-04-07T06:30:46;101550.38;;;9.81
78859;BMP280;68210;52.032;4.634;2023-04-07T06:32:47;101544.44;;;9.87
78859;BMP280;68210;52.032;4.634;2023-04-07T06:34:47;101547.47;;;9.94
78859;BMP280;68210;52.032;4.634;2023-04-07T06:36:47;101537.06;;;9.96
78859;BMP280;68210;52.032;4.634;2023-04-07T06:38:48;101544.94;;;9.89
78859;BMP280;68210;52.032;4.634;2023-04-07T06:40:49;101542.84;;;9.86
78859;BMP280;68210;52.032;4.634;2023-04-07T06:42:50;101552.00;;;10.02
78859;BMP280;68210;52.032;4.634;2023-04-07T06:44:52;101545.38;;;9.91
78859;BMP280;68210;52.032;4.634;2023-04-07T06:46:52;101545.25;;;9.88
78859;BMP280;68210;52.032;4.634;2023-04-07T06:48:54;101555.25;;;9.87
78859;BMP280;68210;52.032;4.634;2023-04-07T06:50:55;101554.97;;;9.80
78859;BMP280;68210;52.032;4.634;2023-04-07T06:52:55;101553.97;;;9.93
78859;BMP280;68210;52.032;4.634;2023-04-07T06:54:56;101562.00;;;10.10
78859;BMP280;68210;52.032;4.634;2023-04-07T06:56:56;101553.88;;;10.10
78859;BMP280;68210;52.032;4.634;2023-04-07T06:58:56;101565.38;;;10.07
78859;BMP280;68210;52.032;4.634;2023-04-07T07:00:57;101565.47;;;9.90
78859;BMP280;68210;52.032;4.634;2023-04-07T07:02:57;101557.69;;;9.89
78859;BMP280;68210;52.032;4.634;2023-04-07T07:04:58;101568.97;;;9.82
78859;BMP280;68210;52.032;4.634;2023-04-07T07:06:58;101577.75;;;9.79
78859;BMP280;68210;52.032;4.634;2023-04-07T07:08:59;101590.38;;;9.75
78859;BMP280;68210;52.032;4.634;2023-04-07T07:11:01;101582.69;;;9.77
78859;BMP280;68210;52.032;4.634;2023-04-07T07:13:02;101592.69;;;9.57
78859;BMP280;68210;52.032;4.634;2023-04-07T07:15:02;101592.38;;;9.50
78859;BMP280;68210;52.032;4.634;2023-04-07T07:17:03;101593.94;;;9.51
78859;BMP280;68210;52.032;4.634;2023-04-07T07:19:03;101589.69;;;9.41
78859;BMP280;68210;52.032;4.634;2023-04-07T07:21:04;101601.94;;;9.39
78859;BMP280;68210;52.032;4.634;2023-04-07T07:23:05;101598.56;;;9.50
78859;BMP280;68210;52.032;4.634;2023-04-07T07:25:05;101599.50;;;9.63
78859;BMP280;68210;52.032;4.634;2023-04-07T07:27:06;101601.69;;;9.69
78859;BMP280;68210;52.032;4.634;2023-04-07T07:29:06;101590.66;;;9.82
78859;BMP280;68210;52.032;4.634;2023-04-07T07:31:10;101603.09;;;9.83
78859;BMP280;68210;52.032;4.634;2023-04-07T07:33:14;101608.94;;;9.85
78859;BMP280;68210;52.032;4.634;2023-04-07T07:35:15;101606.09;;;9.90
78859;BMP280;68210;52.032;4.634;2023-04-07T07:37:17;101610.09;;;9.84
78859;BMP280;68210;52.032;4.634;2023-04-07T07:39:17;101607.84;;;9.86
78859;BMP280;68210;52.032;4.634;2023-04-07T07:41:17;101599.38;;;9.96
78859;BMP280;68210;52.032;4.634;2023-04-07T07:43:19;101616.56;;;10.00
78859;BMP280;68210;52.032;4.634;2023-04-07T07:45:19;101609.28;;;9.92
78859;BMP280;68210;52.032;4.634;2023-04-07T07:47:20;101608.94;;;9.85
78859;BMP280;68210;52.032;4.634;2023-04-07T07:49:21;101618.19;;;9.93
78859;BMP280;68210;52.032;4.634;2023-04-07T07:51:21;101614.22;;;9.90
78859;BMP280;68210;52.032;4.634;2023-04-07T07:53:22;101626.19;;;9.89
78859;BMP280;68210;52.032;4.634;2023-04-07T07:55:22;101628.09;;;9.89
78859;BMP280;68210;52.032;4.634;2023-04-07T07:57:22;101633.06;;;9.78
78859;BMP280;68210;52.032;4.634;2023-04-07T07:59:23;101626.50;;;9.79
78859;BMP280;68210;52.032;4.634;2023-04-07T08:01:23;101630.34;;;9.78
78859;BMP280;68210;52.032;4.634;2023-04-07T08:03:24;101629.88;;;9.76
78859;BMP280;68210;52.032;4.634;2023-04-07T08:05:24;101635.88;;;9.90
78859;BMP280;68210;52.032;4.634;2023-04-07T08:07:25;101638.94;;;9.89
78859;BMP280;68210;52.032;4.634;2023-04-07T08:09:26;101633.31;;;9.85
78859;BMP280;68210;52.032;4.634;2023-04-07T08:11:27;101633.97;;;9.82
78859;BMP280;68210;52.032;4.634;2023-04-07T08:13:27;101636.97;;;9.98
78859;BMP280;68210;52.032;4.634;2023-04-07T08:15:27;101634.22;;;10.06
78859;BMP280;68210;52.032;4.634;2023-04-07T08:17:28;101634.59;;;9.96
78859;BMP280;68210;52.032;4.634;2023-04-07T08:19:29;101639.09;;;9.84
78859;BMP280;68210;52.032;4.634;2023-04-07T08:21:29;101644.69;;;9.79
78859;BMP280;68210;52.032;4.634;2023-04-07T08:23:30;101650.66;;;10.01
78859;BMP280;68210;52.032;4.634;2023-04-07T08:25:31;101639.78;;;10.09
78859;BMP280;68210;52.032;4.634;2023-04-07T08:27:31;101651.88;;;10.12
78859;BMP280;68210;52.032;4.634;2023-04-07T08:29:32;101656.81;;;10.10
78859;BMP280;68210;52.032;4.634;2023-04-07T08:31:32;101647.72;;;10.14
78859;BMP280;68210;52.032;4.634;2023-04-07T08:33:32;101642.25;;;10.23
78859;BMP280;68210;52.032;4.634;2023-04-07T08:35:33;101658.56;;;10.14
78859;BMP280;68210;52.032;4.634;2023-04-07T08:37:34;101654.72;;;10.24
78859;BMP280;68210;52.032;4.634;2023-04-07T08:39:35;101651.22;;;10.15
78859;BMP280;68210;52.032;4.634;2023-04-07T08:41:38;101651.88;;;10.12
78859;BMP280;68210;52.032;4.634;2023-04-07T08:43:41;101666.75;;;10.06
78859;BMP280;68210;52.032;4.634;2023-04-07T08:45:43;101661.41;;;10.18
78859;BMP280;68210;52.032;4.634;2023-04-07T08:47:46;101652.25;;;10.31
78859;BMP280;68210;52.032;4.634;2023-04-07T08:49:50;101659.91;;;10.29
78859;BMP280;68210;52.032;4.634;2023-04-07T08:51:52;101670.59;;;10.05
78859;BMP280;68210;52.032;4.634;2023-04-07T08:53:59;101662.53;;;10.17
78859;BMP280;68210;52.032;4.634;2023-04-07T08:56:03;101663.06;;;10.10
78859;BMP280;68210;52.032;4.634;2023-04-07T08:58:05;101668.28;;;10.15
78859;BMP280;68210;52.032;4.634;2023-04-07T09:00:12;101658.53;;;10.23
78859;BMP280;68210;52.032;4.634;2023-04-07T09:02:13;101656.00;;;10.18
78859;BMP280;68210;52.032;4.634;2023-04-07T09:04:15;101670.38;;;10.18
78859;BMP280;68210;52.032;4.634;2023-04-07T09:06:16;101675.91;;;10.22
78859;BMP280;68210;52.032;4.634;2023-04-07T09:08:16;101674.53;;;10.16
78859;BMP280;68210;52.032;4.634;2023-04-07T09:10:17;101680.84;;;10.20
78859;BMP280;68210;52.032;4.634;2023-04-07T09:12:17;101684.88;;;10.14
78859;BMP280;68210;52.032;4.634;2023-04-07T09:14:18;101679.16;;;10.07
78859;BMP280;68210;52.032;4.634;2023-04-07T09:16:20;101668.97;;;10.04
78859;BMP280;68210;52.032;4.634;2023-04-07T09:18:20;101665.81;;;9.94
78859;BMP280;68210;52.032;4.634;2023-04-07T09:20:21;101682.03;;;10.02
78859;BMP280;68210;52.032;4.634;2023-04-07T09:22:42;101684.56;;;10.07
78859;BMP280;68210;52.032;4.634;2023-04-07T09:24:44;101675.34;;;10.08
78859;BMP280;68210;52.032;4.634;2023-04-07T09:26:45;101675.19;;;10.04
78859;BMP280;68210;52.032;4.634;2023-04-07T09:28:47;101681.50;;;10.17
78859;BMP280;68210;52.032;4.634;2023-04-07T09:30:54;101684.41;;;10.12
78859;BMP280;68210;52.032;4.634;2023-04-07T09:32:55;101670.97;;;10.24
78859;BMP280;68210;52.032;4.634;2023-04-07T09:34:59;101687.22;;;10.24
78859;BMP280;68210;52.032;4.634;2023-04-07T09:37:00;101687.31;;;10.35
78859;BMP280;68210;52.032;4.634;2023-04-07T09:39:07;101688.25;;;10.39
78859;BMP280;68210;52.032;4.634;2023-04-07T09:41:15;101675.59;;;10.52
78859;BMP280;68210;52.032;4.634;2023-04-07T09:43:18;101678.38;;;10.63
78859;BMP280;68210;52.032;4.634;2023-04-07T09:45:29;101689.75;;;10.57
78859;BMP280;68210;52.032;4.634;2023-04-07T09:47:31;101677.03;;;10.49
78859;BMP280;68210;52.032;4.634;2023-04-07T09:49:32;101693.84;;;10.63
78859;BMP280;68210;52.032;4.634;2023-04-07T09:51:58;101687.31;;;10.35
78859;BMP280;68210;52.032;4.634;2023-04-07T09:53:59;101695.53;;;10.47
78859;BMP280;68210;52.032;4.634;2023-04-07T09:55:59;101693.97;;;10.46
78859;BMP280;68210;52.032;4.634;2023-04-07T09:58:00;101689.22;;;10.63
78859;BMP280;68210;52.032;4.634;2023-04-07T10:00:01;101693.47;;;10.44
78859;BMP280;68210;52.032;4.634;2023-04-07T10:02:02;101692.09;;;10.38
78859;BMP280;68210;52.032;4.634;2023-04-07T10:04:04;101701.63;;;10.44
78859;BMP280;68210;52.032;4.634;2023-04-07T10:06:05;101702.09;;;10.46
78859;BMP280;68210;52.032;4.634;2023-04-07T10:08:08;101698.84;;;10.61
78859;BMP280;68210;52.032;4.634;2023-04-07T10:10:09;101699.00;;;10.56
78859;BMP280;68210;52.032;4.634;2023-04-07T10:12:10;101695.47;;;10.64
78859;BMP280;68210;52.032;4.634;2023-04-07T10:14:11;101697.97;;;10.69
78859;BMP280;68210;52.032;4.634;2023-04-07T10:16:11;101688.47;;;10.83
78859;BMP280;68210;52.032;4.634;2023-04-07T10:18:12;101694.63;;;10.72
78859;BMP280;68210;52.032;4.634;2023-04-07T10:20:18;101694.50;;;10.60
78859;BMP280;68210;52.032;4.634;2023-04-07T10:22:20;101714.91;;;10.37
78859;BMP280;68210;52.032;4.634;2023-04-07T10:24:44;101703.22;;;10.45
78859;BMP280;68210;52.032;4.634;2023-04-07T10:26:57;101698.59;;;10.46
78859;BMP280;68210;52.032;4.634;2023-04-07T10:29:02;101704.16;;;10.49
78859;BMP280;68210;52.032;4.634;2023-04-07T10:31:04;101712.97;;;10.38
78859;BMP280;68210;52.032;4.634;2023-04-07T10:33:04;101708.00;;;10.48
78859;BMP280;68210;52.032;4.634;2023-04-07T10:35:05;101704.44;;;10.56
78859;BMP280;68210;52.032;4.634;2023-04-07T10:37:11;101711.91;;;10.59
78859;BMP280;68210;52.032;4.634;2023-04-07T10:41:37;101718.19;;;10.71
78859;BMP280;68210;52.032;4.634;2023-04-07T10:43:39;101721.91;;;10.67
78859;BMP280;68210;52.032;4.634;2023-04-07T10:50:23;101723.25;;;10.61
78859;BMP280;68210;52.032;4.634;2023-04-07T10:52:23;101709.22;;;10.59
78859;BMP280;68210;52.032;4.634;2023-04-07T10:54:24;101720.31;;;10.66
78859;BMP280;68210;52.032;4.634;2023-04-07T10:59:13;101713.97;;;10.91
78859;BMP280;68210;52.032;4.634;2023-04-07T11:01:15;101722.09;;;10.91
78859;BMP280;68210;52.032;4.634;2023-04-07T11:03:15;101738.63;;;10.97
78859;BMP280;68210;52.032;4.634;2023-04-07T11:05:20;101730.28;;;11.02
78859;BMP280;68210;52.032;4.634;2023-04-07T11:07:42;101732.38;;;10.77
78859;BMP280;68210;52.032;4.634;2023-04-07T11:09:42;101751.19;;;10.82
78859;BMP280;68210;52.032;4.634;2023-04-07T11:11:45;101735.13;;;10.68
78859;BMP280;68210;52.032;4.634;2023-04-07T11:13:48;101732.91;;;10.70
78859;BMP280;68210;52.032;4.634;2023-04-07T11:15:49;101747.44;;;10.66
78859;BMP280;68210;52.032;4.634;2023-04-07T11:18:13;101744.47;;;10.59
78859;BMP280;68210;52.032;4.634;2023-04-07T11:20:15;101726.41;;;10.63
78859;BMP280;68210;52.032;4.634;2023-04-07T11:22:16;101743.88;;;10.74
78859;BMP280;68210;52.032;4.634;2023-04-07T11:26:39;101753.03;;;10.69
78859;BMP280;68210;52.032;4.634;2023-04-07T11:28:48;101744.50;;;10.51
78859;BMP280;68210;52.032;4.634;2023-04-07T11:30:50;101756.75;;;10.57
78859;BMP280;68210;52.032;4.634;2023-04-07T11:32:51;101749.28;;;10.54
78859;BMP280;68210;52.032;4.634;2023-04-07T11:34:52;101755.00;;;10.52
78859;BMP280;68210;52.032;4.634;2023-04-07T11:36:52;101758.22;;;10.46
78859;BMP280;68210;52.032;4.634;2023-04-07T11:38:53;101754.19;;;10.15
78859;BMP280;68210;52.032;4.634;2023-04-07T11:40:55;101751.53;;;10.43
78859;BMP280;68210;52.032;4.634;2023-04-07T11:42:56;101762.13;;;10.28
78859;BMP280;68210;52.032;4.634;2023-04-07T11:44:58;101765.81;;;10.24
78859;BMP280;68210;52.032;4.634;2023-04-07T11:46:59;101759.69;;;10.43
78859;BMP280;68210;52.032;4.634;2023-04-07T11:49:10;101759.81;;;10.47
78859;BMP280;68210;52.032;4.634;2023-04-07T11:51:19;101760.78;;;10.51
78859;BMP280;68210;52.032;4.634;2023-04-07T11:55:29;101763.66;;;10.46
78859;BMP280;68210;52.032;4.634;2023-04-07T11:57:30;101765.38;;;10.50